sensor_id;sensor_type;location;lat;lon;timestamp;P1;durP1;ratioP1;P2;durP2;ratioP2
72205;SDS011;60111;48.286;7.812;2023-04-24T00:01:23;2.85;;;1.00;;
72205;SDS011;60111;48.286;7.812;2023-04-24T00:03:56;2.95;;;1.00;;
72205;SDS011;60111;48.286;7.812;2023-04-24T00:06:30;3.53;;;1.00;;
72205;SDS011;60111;48.286;7.812;2023-04-24T00:09:05;2.98;;;0.88;;
72205;SDS011;60111;48.286;7.812;2023-04-24T00:11:39;2.25;;;1.15;;
72205;SDS011;60111;48.286;7.812;2023-04-24T00:14:12;2.57;;;0.93;;
72205;SDS011;60111;48.286;7.812;2023-04-24T00:16:45;1.15;;;0.90;;
72205;SDS011;60111;48.286;7.812;2023-04-24T00:19:17;1.57;;;1.00;;
72205;SDS011;60111;48.286;7.812;2023-04-24T00:24:24;1.65;;;1.10;;
72205;SDS011;60111;48.286;7.812;2023-04-24T00:26:57;3.58;;;1.27;;
72205;SDS011;60111;48.286;7.812;2023-04-24T00:29:31;2.07;;;1.10;;
72205;SDS011;60111;48.286;7.812;2023-04-24T00:32:04;3.25;;;1.15;;
72205;SDS011;60111;48.286;7.812;2023-04-24T00:34:38;1.67;;;1.02;;
72205;SDS011;60111;48.286;7.812;2023-04-24T00:37:10;1.80;;;1.10;;
72205;SDS011;60111;48.286;7.812;2023-04-24T00:39:43;2.47;;;0.93;;
72205;SDS011;60111;48.286;7.812;2023-04-24T00:42:15;2.33;;;1.10;;
72205;SDS011;60111;48.286;7.812;2023-04-24T00:44:48;2.00;;;0.88;;
72205;SDS011;60111;48.286;7.812;2023-04-24T00:47:21;1.40;;;1.02;;
72205;SDS011;60111;48.286;7.812;2023-04-24T00:49:54;1.77;;;0.85;;
72205;SDS011;60111;48.286;7.812;2023-04-24T00:52:27;3.72;;;1.00;;
72205;SDS011;60111;48.286;7.812;2023-04-24T00:55:01;1.52;;;0.98;;
72205;SDS011;60111;48.286;7.812;2023-04-24T00:57:34;1.30;;;0.90;;
72205;SDS011;60111;48.286;7.812;2023-04-24T01:00:06;1.98;;;1.00;;
72205;SDS011;60111;48.286;7.812;2023-04-24T01:02:47;1.30;;;0.80;;
72205;SDS011;60111;48.286;7.812;2023-04-24T01:05:17;1.67;;;0.90;;
72205;SDS011;60111;48.286;7.812;2023-04-24T01:07:50;2.67;;;1.00;;
72205;SDS011;60111;48.286;7.812;2023-04-24T01:10:23;1.47;;;0.88;;
72205;SDS011;60111;48.286;7.812;2023-04-24T01:12:57;4.07;;;1.23;;
72205;SDS011;60111;48.286;7.812;2023-04-24T01:15:30;1.93;;;0.83;;
72205;SDS011;60111;48.286;7.812;2023-04-24T01:18:03;1.55;;;1.07;;
72205;SDS011;60111;48.286;7.812;2023-04-24T01:20:37;2.92;;;1.00;;
72205;SDS011;60111;48.286;7.812;2023-04-24T01:23:11;2.00;;;1.10;;
72205;SDS011;60111;48.286;7.812;2023-04-24T01:25:44;1.27;;;0.90;;
72205;SDS011;60111;48.286;7.812;2023-04-24T01:28:17;5.00;;;1.00;;
72205;SDS011;60111;48.286;7.812;2023-04-24T01:30:49;2.23;;;1.17;;
72205;SDS011;60111;48.286;7.812;2023-04-24T01:33:22;1.40;;;0.80;;
72205;SDS011;60111;48.286;7.812;2023-04-24T01:35:55;3.67;;;1.10;;
72205;SDS011;60111;48.286;7.812;2023-04-24T01:38:28;3.40;;;0.98;;
72205;SDS011;60111;48.286;7.812;2023-04-24T01:41:00;2.92;;;0.95;;
72205;SDS011;60111;48.286;7.812;2023-04-24T01:43:33;0.78;;;0.70;;
72205;SDS011;60111;48.286;7.812;2023-04-24T01:46:06;2.25;;;1.07;;
72205;SDS011;60111;48.286;7.812;2023-04-24T01:48:39;2.70;;;0.80;;
72205;SDS011;60111;48.286;7.812;2023-04-24T01:53:46;1.62;;;0.90;;
72205;SDS011;60111;48.286;7.812;2023-04-24T01:56:20;2.30;;;0.93;;
72205;SDS011;60111;48.286;7.812;2023-04-24T01:58:54;1.20;;;0.80;;
72205;SDS011;60111;48.286;7.812;2023-04-24T02:01:31;1.77;;;0.90;;
72205;SDS011;60111;48.286;7.812;2023-04-24T02:04:07;0.70;;;0.70;;
72205;SDS011;60111;48.286;7.812;2023-04-24T02:06:40;1.07;;;0.95;;
72205;SDS011;60111;48.286;7.812;2023-04-24T02:09:12;3.27;;;1.00;;
72205;SDS011;60111;48.286;7.812;2023-04-24T02:11:45;2.83;;;1.00;;
72205;SDS011;60111;48.286;7.812;2023-04-24T02:14:18;1.93;;;0.80;;
72205;SDS011;60111;48.286;7.812;2023-04-24T02:16:50;1.75;;;0.90;;
72205;SDS011;60111;48.286;7.812;2023-04-24T02:19:24;1.83;;;0.80;;
72205;SDS011;60111;48.286;7.812;2023-04-24T02:21:56;2.42;;;0.80;;
72205;SDS011;60111;48.286;7.812;2023-04-24T02:24:29;0.70;;;0.70;;
72205;SDS011;60111;48.286;7.812;2023-04-24T02:27:01;1.37;;;0.80;;
72205;SDS011;60111;48.286;7.812;2023-04-24T02:29:34;1.60;;;0.82;;
72205;SDS011;60111;48.286;7.812;2023-04-24T02:32:06;1.82;;;1.00;;
72205;SDS011;60111;48.286;7.812;2023-04-24T02:34:41;0.85;;;0.80;;
72205;SDS011;60111;48.286;7.812;2023-04-24T02:37:13;2.20;;;1.00;;
72205;SDS011;60111;48.286;7.812;2023-04-24T02:39:46;1.43;;;0.87;;
72205;SDS011;60111;48.286;7.812;2023-04-24T02:42:19;4.62;;;1.05;;
72205;SDS011;60111;48.286;7.812;2023-04-24T02:44:51;2.20;;;1.00;;
72205;SDS011;60111;48.286;7.812;2023-04-24T02:47:24;1.27;;;0.82;;
72205;SDS011;60111;48.286;7.812;2023-04-24T02:49:57;2.85;;;1.10;;
72205;SDS011;60111;48.286;7.812;2023-04-24T02:52:29;2.98;;;0.90;;
72205;SDS011;60111;48.286;7.812;2023-04-24T02:55:02;0.90;;;0.90;;
72205;SDS011;60111;48.286;7.812;2023-04-24T02:57:35;1.92;;;1.00;;
72205;SDS011;60111;48.286;7.812;2023-04-24T03:00:08;3.05;;;1.20;;
72205;SDS011;60111;48.286;7.812;2023-04-24T03:02:42;3.90;;;1.25;;
72205;SDS011;60111;48.286;7.812;2023-04-24T03:05:15;3.67;;;1.10;;
72205;SDS011;60111;48.286;7.812;2023-04-24T03:07:49;4.93;;;1.17;;
72205;SDS011;60111;48.286;7.812;2023-04-24T03:12:55;2.15;;;1.20;;
72205;SDS011;60111;48.286;7.812;2023-04-24T03:15:29;2.37;;;1.30;;
72205;SDS011;60111;48.286;7.812;2023-04-24T03:18:02;6.58;;;1.47;;
72205;SDS011;60111;48.286;7.812;2023-04-24T03:20:34;2.52;;;1.27;;
72205;SDS011;60111;48.286;7.812;2023-04-24T03:23:08;4.20;;;1.40;;
72205;SDS011;60111;48.286;7.812;2023-04-24T03:25:40;1.60;;;1.00;;
72205;SDS011;60111;48.286;7.812;2023-04-24T03:28:13;1.57;;;1.15;;
72205;SDS011;60111;48.286;7.812;2023-04-24T03:30:46;4.08;;;1.35;;
72205;SDS011;60111;48.286;7.812;2023-04-24T03:33:19;3.85;;;1.10;;
72205;SDS011;60111;48.286;7.812;2023-04-24T03:35:54;3.30;;;1.27;;
72205;SDS011;60111;48.286;7.812;2023-04-24T03:38:27;1.77;;;1.40;;
72205;SDS011;60111;48.286;7.812;2023-04-24T03:41:00;1.75;;;1.12;;
72205;SDS011;60111;48.286;7.812;2023-04-24T03:43:33;1.35;;;1.20;;
72205;SDS011;60111;48.286;7.812;2023-04-24T03:46:05;2.58;;;1.27;;
72205;SDS011;60111;48.286;7.812;2023-04-24T03:48:40;1.00;;;0.90;;
72205;SDS011;60111;48.286;7.812;2023-04-24T03:51:12;2.90;;;1.33;;
72205;SDS011;60111;48.286;7.812;2023-04-24T03:53:45;2.75;;;1.40;;
72205;SDS011;60111;48.286;7.812;2023-04-24T03:56:17;3.05;;;1.32;;
72205;SDS011;60111;48.286;7.812;2023-04-24T03:58:51;2.05;;;1.40;;
72205;SDS011;60111;48.286;7.812;2023-04-24T04:01:24;2.65;;;1.47;;
72205;SDS011;60111;48.286;7.812;2023-04-24T04:06:30;2.08;;;1.50;;
72205;SDS011;60111;48.286;7.812;2023-04-24T04:09:03;5.12;;;1.70;;
72205;SDS011;60111;48.286;7.812;2023-04-24T04:11:37;3.25;;;1.40;;
72205;SDS011;60111;48.286;7.812;2023-04-24T04:14:09;3.47;;;1.40;;
72205;SDS011;60111;48.286;7.812;2023-04-24T04:16:42;1.30;;;1.20;;
72205;SDS011;60111;48.286;7.812;2023-04-24T04:19:15;3.15;;;1.32;;
72205;SDS011;60111;48.286;7.812;2023-04-24T04:21:47;2.40;;;1.50;;
72205;SDS011;60111;48.286;7.812;2023-04-24T04:24:24;2.35;;;1.27;;
72205;SDS011;60111;48.286;7.812;2023-04-24T04:26:57;2.47;;;1.70;;
72205;SDS011;60111;48.286;7.812;2023-04-24T04:29:30;1.92;;;1.50;;
72205;SDS011;60111;48.286;7.812;2023-04-24T04:32:03;2.03;;;1.23;;
72205;SDS011;60111;48.286;7.812;2023-04-24T04:34:37;2.20;;;1.67;;
72205;SDS011;60111;48.286;7.812;2023-04-24T04:37:10;1.55;;;1.35;;
72205;SDS011;60111;48.286;7.812;2023-04-24T04:39:43;1.63;;;1.40;;
72205;SDS011;60111;48.286;7.812;2023-04-24T04:42:16;2.12;;;1.45;;
72205;SDS011;60111;48.286;7.812;2023-04-24T04:44:49;2.17;;;1.47;;
72205;SDS011;60111;48.286;7.812;2023-04-24T04:47:22;4.12;;;1.55;;
72205;SDS011;60111;48.286;7.812;2023-04-24T04:49:55;3.65;;;1.75;;
72205;SDS011;60111;48.286;7.812;2023-04-24T04:52:28;1.90;;;1.52;;
72205;SDS011;60111;48.286;7.812;2023-04-24T04:55:00;3.12;;;1.32;;
72205;SDS011;60111;48.286;7.812;2023-04-24T04:57:33;1.72;;;1.60;;
72205;SDS011;60111;48.286;7.812;2023-04-24T05:00:06;2.92;;;1.50;;
72205;SDS011;60111;48.286;7.812;2023-04-24T05:02:41;4.70;;;1.72;;
72205;SDS011;60111;48.286;7.812;2023-04-24T05:05:13;2.37;;;1.55;;
72205;SDS011;60111;48.286;7.812;2023-04-24T05:07:47;1.95;;;1.70;;
72205;SDS011;60111;48.286;7.812;2023-04-24T05:10:20;3.17;;;1.62;;
72205;SDS011;60111;48.286;7.812;2023-04-24T05:12:53;2.95;;;2.20;;
72205;SDS011;60111;48.286;7.812;2023-04-24T05:15:25;3.10;;;2.00;;
72205;SDS011;60111;48.286;7.812;2023-04-24T05:17:58;2.72;;;2.15;;
72205;SDS011;60111;48.286;7.812;2023-04-24T05:20:30;2.67;;;2.10;;
72205;SDS011;60111;48.286;7.812;2023-04-24T05:23:03;2.10;;;1.90;;
72205;SDS011;60111;48.286;7.812;2023-04-24T05:25:36;3.22;;;2.37;;
72205;SDS011;60111;48.286;7.812;2023-04-24T05:28:10;3.52;;;2.60;;
72205;SDS011;60111;48.286;7.812;2023-04-24T05:30:43;2.58;;;1.92;;
72205;SDS011;60111;48.286;7.812;2023-04-24T05:33:17;3.77;;;2.12;;
72205;SDS011;60111;48.286;7.812;2023-04-24T05:35:49;2.37;;;1.75;;
72205;SDS011;60111;48.286;7.812;2023-04-24T05:38:22;3.42;;;1.85;;
72205;SDS011;60111;48.286;7.812;2023-04-24T05:40:54;3.70;;;2.10;;
72205;SDS011;60111;48.286;7.812;2023-04-24T05:43:27;2.10;;;1.90;;
72205;SDS011;60111;48.286;7.812;2023-04-24T05:45:59;3.15;;;2.30;;
72205;SDS011;60111;48.286;7.812;2023-04-24T05:48:32;4.35;;;2.50;;
72205;SDS011;60111;48.286;7.812;2023-04-24T05:51:05;4.05;;;2.85;;
72205;SDS011;60111;48.286;7.812;2023-04-24T05:53:37;6.97;;;3.00;;
72205;SDS011;60111;48.286;7.812;2023-04-24T05:56:10;2.77;;;2.50;;
72205;SDS011;60111;48.286;7.812;2023-04-24T05:58:43;3.77;;;2.30;;
72205;SDS011;60111;48.286;7.812;2023-04-24T06:01:17;3.87;;;2.83;;
72205;SDS011;60111;48.286;7.812;2023-04-24T06:03:50;5.17;;;3.60;;
72205;SDS011;60111;48.286;7.812;2023-04-24T06:06:24;3.52;;;2.60;;
72205;SDS011;60111;48.286;7.812;2023-04-24T06:08:57;5.97;;;3.45;;
72205;SDS011;60111;48.286;7.812;2023-04-24T06:11:30;5.35;;;3.10;;
72205;SDS011;60111;48.286;7.812;2023-04-24T06:14:03;4.33;;;2.87;;
72205;SDS011;60111;48.286;7.812;2023-04-24T06:16:35;3.83;;;2.80;;
72205;SDS011;60111;48.286;7.812;2023-04-24T06:19:09;3.62;;;2.70;;
72205;SDS011;60111;48.286;7.812;2023-04-24T06:21:42;3.70;;;2.40;;
72205;SDS011;60111;48.286;7.812;2023-04-24T06:24:14;4.10;;;2.90;;
72205;SDS011;60111;48.286;7.812;2023-04-24T06:26:47;4.75;;;2.90;;
72205;SDS011;60111;48.286;7.812;2023-04-24T06:29:20;4.47;;;3.10;;
72205;SDS011;60111;48.286;7.812;2023-04-24T06:31:53;5.53;;;2.58;;
72205;SDS011;60111;48.286;7.812;2023-04-24T06:34:25;5.33;;;3.02;;
72205;SDS011;60111;48.286;7.812;2023-04-24T06:36:58;4.05;;;2.83;;
72205;SDS011;60111;48.286;7.812;2023-04-24T06:39:31;4.12;;;2.67;;
72205;SDS011;60111;48.286;7.812;2023-04-24T06:42:03;3.20;;;2.33;;
72205;SDS011;60111;48.286;7.812;2023-04-24T06:44:36;3.50;;;2.02;;
72205;SDS011;60111;48.286;7.812;2023-04-24T06:47:10;3.00;;;2.27;;
72205;SDS011;60111;48.286;7.812;2023-04-24T06:49:44;5.00;;;2.20;;
72205;SDS011;60111;48.286;7.812;2023-04-24T06:52:16;2.70;;;1.93;;
72205;SDS011;60111;48.286;7.812;2023-04-24T06:54:49;2.75;;;1.72;;
72205;SDS011;60111;48.286;7.812;2023-04-24T06:57:22;4.20;;;2.30;;
72205;SDS011;60111;48.286;7.812;2023-04-24T06:59:55;3.65;;;1.98;;
72205;SDS011;60111;48.286;7.812;2023-04-24T07:02:29;1.65;;;1.50;;
72205;SDS011;60111;48.286;7.812;2023-04-24T07:05:02;1.60;;;1.30;;
72205;SDS011;60111;48.286;7.812;2023-04-24T07:07:35;1.60;;;1.40;;
72205;SDS011;60111;48.286;7.812;2023-04-24T07:10:08;1.85;;;1.40;;
72205;SDS011;60111;48.286;7.812;2023-04-24T07:12:41;3.05;;;1.30;;
72205;SDS011;60111;48.286;7.812;2023-04-24T07:15:13;2.40;;;1.27;;
72205;SDS011;60111;48.286;7.812;2023-04-24T07:17:47;2.53;;;1.17;;
72205;SDS011;60111;48.286;7.812;2023-04-24T07:20:19;1.45;;;1.10;;
72205;SDS011;60111;48.286;7.812;2023-04-24T07:22:52;1.85;;;1.40;;
72205;SDS011;60111;48.286;7.812;2023-04-24T07:25:25;6.15;;;1.55;;
72205;SDS011;60111;48.286;7.812;2023-04-24T07:27:59;3.70;;;1.43;;
72205;SDS011;60111;48.286;7.812;2023-04-24T07:30:31;2.50;;;1.50;;
72205;SDS011;60111;48.286;7.812;2023-04-24T07:33:04;2.50;;;1.40;;
72205;SDS011;60111;48.286;7.812;2023-04-24T07:35:37;4.33;;;1.63;;
72205;SDS011;60111;48.286;7.812;2023-04-24T07:38:10;3.60;;;1.70;;
72205;SDS011;60111;48.286;7.812;2023-04-24T07:40:42;3.60;;;1.60;;
72205;SDS011;60111;48.286;7.812;2023-04-24T07:43:15;3.47;;;1.60;;
72205;SDS011;60111;48.286;7.812;2023-04-24T07:45:48;2.40;;;1.70;;
72205;SDS011;60111;48.286;7.812;2023-04-24T07:48:21;3.02;;;1.65;;
72205;SDS011;60111;48.286;7.812;2023-04-24T07:50:53;2.00;;;1.70;;
72205;SDS011;60111;48.286;7.812;2023-04-24T07:53:27;3.62;;;1.65;;
72205;SDS011;60111;48.286;7.812;2023-04-24T07:56:00;2.77;;;1.62;;
72205;SDS011;60111;48.286;7.812;2023-04-24T07:58:33;2.42;;;1.72;;
72205;SDS011;60111;48.286;7.812;2023-04-24T08:01:06;3.50;;;1.77;;
72205;SDS011;60111;48.286;7.812;2023-04-24T08:03:40;2.65;;;1.80;;
72205;SDS011;60111;48.286;7.812;2023-04-24T08:06:13;2.20;;;1.70;;
72205;SDS011;60111;48.286;7.812;2023-04-24T08:08:45;4.08;;;1.50;;
72205;SDS011;60111;48.286;7.812;2023-04-24T08:11:18;5.55;;;2.00;;
72205;SDS011;60111;48.286;7.812;2023-04-24T08:13:51;4.25;;;1.95;;
72205;SDS011;60111;48.286;7.812;2023-04-24T08:16:25;3.83;;;1.80;;
72205;SDS011;60111;48.286;7.812;2023-04-24T08:18:58;4.67;;;1.52;;
72205;SDS011;60111;48.286;7.812;2023-04-24T08:21:31;2.70;;;1.45;;
72205;SDS011;60111;48.286;7.812;2023-04-24T08:24:03;3.70;;;1.80;;
72205;SDS011;60111;48.286;7.812;2023-04-24T08:26:37;5.03;;;1.57;;
72205;SDS011;60111;48.286;7.812;2023-04-24T08:29:11;4.12;;;1.80;;
72205;SDS011;60111;48.286;7.812;2023-04-24T08:31:43;4.42;;;1.40;;
72205;SDS011;60111;48.286;7.812;2023-04-24T08:34:16;4.25;;;1.22;;
72205;SDS011;60111;48.286;7.812;2023-04-24T08:36:48;3.12;;;1.30;;
72205;SDS011;60111;48.286;7.812;2023-04-24T08:39:21;2.67;;;1.10;;
72205;SDS011;60111;48.286;7.812;2023-04-24T08:41:55;3.27;;;1.22;;
72205;SDS011;60111;48.286;7.812;2023-04-24T08:44:29;1.42;;;1.02;;
72205;SDS011;60111;48.286;7.812;2023-04-24T08:47:08;1.20;;;1.10;;
72205;SDS011;60111;48.286;7.812;2023-04-24T08:49:40;2.00;;;0.90;;
72205;SDS011;60111;48.286;7.812;2023-04-24T08:52:14;0.98;;;0.90;;
72205;SDS011;60111;48.286;7.812;2023-04-24T08:54:48;1.20;;;0.70;;
72205;SDS011;60111;48.286;7.812;2023-04-24T08:57:20;2.30;;;1.10;;
72205;SDS011;60111;48.286;7.812;2023-04-24T08:59:54;2.52;;;1.12;;
72205;SDS011;60111;48.286;7.812;2023-04-24T09:02:27;1.93;;;0.83;;
72205;SDS011;60111;48.286;7.812;2023-04-24T09:05:02;1.12;;;0.90;;
72205;SDS011;60111;48.286;7.812;2023-04-24T09:07:36;1.83;;;0.90;;
72205;SDS011;60111;48.286;7.812;2023-04-24T09:10:11;2.37;;;1.23;;
72205;SDS011;60111;48.286;7.812;2023-04-24T09:12:44;1.13;;;0.80;;
72205;SDS011;60111;48.286;7.812;2023-04-24T09:15:18;2.07;;;1.00;;
72205;SDS011;60111;48.286;7.812;2023-04-24T09:17:53;0.98;;;0.90;;
72205;SDS011;60111;48.286;7.812;2023-04-24T09:20:28;1.20;;;1.02;;
72205;SDS011;60111;48.286;7.812;2023-04-24T09:23:00;2.20;;;0.93;;
72205;SDS011;60111;48.286;7.812;2023-04-24T09:25:34;1.90;;;0.90;;
72205;SDS011;60111;48.286;7.812;2023-04-24T09:28:07;1.13;;;1.00;;
72205;SDS011;60111;48.286;7.812;2023-04-24T09:30:40;3.60;;;1.20;;
72205;SDS011;60111;48.286;7.812;2023-04-24T09:33:13;2.17;;;1.10;;
72205;SDS011;60111;48.286;7.812;2023-04-24T09:35:50;2.20;;;1.10;;
72205;SDS011;60111;48.286;7.812;2023-04-24T09:38:36;1.75;;;1.30;;
72205;SDS011;60111;48.286;7.812;2023-04-24T09:41:10;1.50;;;1.30;;
72205;SDS011;60111;48.286;7.812;2023-04-24T09:43:45;1.87;;;1.20;;
72205;SDS011;60111;48.286;7.812;2023-04-24T09:46:18;3.27;;;1.10;;
72205;SDS011;60111;48.286;7.812;2023-04-24T09:51:33;2.60;;;1.20;;
72205;SDS011;60111;48.286;7.812;2023-04-24T09:54:14;1.53;;;1.10;;
72205;SDS011;60111;48.286;7.812;2023-04-24T09:56:51;4.40;;;1.27;;
72205;SDS011;60111;48.286;7.812;2023-04-24T10:01:58;2.12;;;1.00;;
72205;SDS011;60111;48.286;7.812;2023-04-24T10:04:31;1.37;;;1.00;;
72205;SDS011;60111;48.286;7.812;2023-04-24T10:07:04;2.22;;;1.42;;
72205;SDS011;60111;48.286;7.812;2023-04-24T10:09:38;0.88;;;0.88;;
72205;SDS011;60111;48.286;7.812;2023-04-24T10:12:10;1.23;;;0.87;;
72205;SDS011;60111;48.286;7.812;2023-04-24T10:14:45;3.13;;;1.23;;
72205;SDS011;60111;48.286;7.812;2023-04-24T10:17:18;2.17;;;1.20;;
72205;SDS011;60111;48.286;7.812;2023-04-24T10:19:52;2.60;;;1.27;;
72205;SDS011;60111;48.286;7.812;2023-04-24T10:22:25;2.75;;;1.00;;
72205;SDS011;60111;48.286;7.812;2023-04-24T10:25:01;2.05;;;1.00;;
72205;SDS011;60111;48.286;7.812;2023-04-24T10:27:36;1.72;;;0.95;;
72205;SDS011;60111;48.286;7.812;2023-04-24T10:30:11;1.97;;;1.20;;
72205;SDS011;60111;48.286;7.812;2023-04-24T10:35:17;1.77;;;1.17;;
72205;SDS011;60111;48.286;7.812;2023-04-24T10:37:54;2.25;;;1.15;;
72205;SDS011;60111;48.286;7.812;2023-04-24T10:40:34;1.65;;;1.10;;
72205;SDS011;60111;48.286;7.812;2023-04-24T10:43:08;3.70;;;1.40;;
72205;SDS011;60111;48.286;7.812;2023-04-24T10:45:45;2.25;;;1.37;;
72205;SDS011;60111;48.286;7.812;2023-04-24T10:48:33;1.40;;;1.30;;
72205;SDS011;60111;48.286;7.812;2023-04-24T10:51:06;2.87;;;1.32;;
72205;SDS011;60111;48.286;7.812;2023-04-24T10:53:42;1.82;;;1.30;;
72205;SDS011;60111;48.286;7.812;2023-04-24T10:56:15;2.10;;;1.52;;
72205;SDS011;60111;48.286;7.812;2023-04-24T10:58:52;2.08;;;1.47;;
72205;SDS011;60111;48.286;7.812;2023-04-24T11:01:27;2.15;;;1.30;;
72205;SDS011;60111;48.286;7.812;2023-04-24T11:04:01;4.00;;;1.50;;
72205;SDS011;60111;48.286;7.812;2023-04-24T11:06:35;1.80;;;1.60;;
72205;SDS011;60111;48.286;7.812;2023-04-24T11:09:09;3.67;;;1.40;;
72205;SDS011;60111;48.286;7.812;2023-04-24T11:11:46;1.75;;;1.20;;
72205;SDS011;60111;48.286;7.812;2023-04-24T11:14:19;2.08;;;1.50;;
72205;SDS011;60111;48.286;7.812;2023-04-24T11:16:53;2.12;;;1.65;;
72205;SDS011;60111;48.286;7.812;2023-04-24T11:19:26;2.33;;;1.50;;
72205;SDS011;60111;48.286;7.812;2023-04-24T11:22:02;2.02;;;1.30;;
72205;SDS011;60111;48.286;7.812;2023-04-24T11:32:40;1.42;;;0.90;;
72205;SDS011;60111;48.286;7.812;2023-04-24T11:35:16;1.55;;;1.30;;
72205;SDS011;60111;48.286;7.812;2023-04-24T11:37:52;1.47;;;1.20;;
72205;SDS011;60111;48.286;7.812;2023-04-24T11:40:25;1.40;;;1.10;;
72205;SDS011;60111;48.286;7.812;2023-04-24T11:42:59;1.20;;;1.10;;
72205;SDS011;60111;48.286;7.812;2023-04-24T11:45:32;3.27;;;1.60;;
72205;SDS011;60111;48.286;7.812;2023-04-24T11:48:04;2.13;;;1.30;;
72205;SDS011;60111;48.286;7.812;2023-04-24T11:50:37;2.93;;;1.20;;
72205;SDS011;60111;48.286;7.812;2023-04-24T11:53:10;3.33;;;1.53;;
72205;SDS011;60111;48.286;7.812;2023-04-24T11:55:43;3.65;;;1.32;;
72205;SDS011;60111;48.286;7.812;2023-04-24T11:58:16;1.60;;;1.23;;
72205;SDS011;60111;48.286;7.812;2023-04-24T12:00:57;1.30;;;1.20;;
72205;SDS011;60111;48.286;7.812;2023-04-24T12:03:31;1.70;;;1.02;;
72205;SDS011;60111;48.286;7.812;2023-04-24T12:06:09;2.42;;;1.12;;
72205;SDS011;60111;48.286;7.812;2023-04-24T12:08:45;2.40;;;1.47;;
72205;SDS011;60111;48.286;7.812;2023-04-24T12:11:19;1.87;;;1.22;;
72205;SDS011;60111;48.286;7.812;2023-04-24T12:13:52;1.57;;;1.30;;
72205;SDS011;60111;48.286;7.812;2023-04-24T12:16:25;3.92;;;1.30;;
72205;SDS011;60111;48.286;7.812;2023-04-24T12:18:58;1.63;;;1.30;;
72205;SDS011;60111;48.286;7.812;2023-04-24T12:21:31;2.33;;;1.27;;
72205;SDS011;60111;48.286;7.812;2023-04-24T12:24:06;2.55;;;1.20;;
72205;SDS011;60111;48.286;7.812;2023-04-24T12:29:11;1.45;;;1.10;;
72205;SDS011;60111;48.286;7.812;2023-04-24T12:31:47;1.77;;;1.10;;
72205;SDS011;60111;48.286;7.812;2023-04-24T12:34:20;1.72;;;1.20;;
72205;SDS011;60111;48.286;7.812;2023-04-24T12:36:54;2.67;;;1.10;;
72205;SDS011;60111;48.286;7.812;2023-04-24T12:39:27;2.20;;;1.37;;
72205;SDS011;60111;48.286;7.812;2023-04-24T12:41:59;1.90;;;1.15;;
72205;SDS011;60111;48.286;7.812;2023-04-24T12:44:33;0.93;;;0.90;;
72205;SDS011;60111;48.286;7.812;2023-04-24T12:47:07;1.35;;;1.25;;
72205;SDS011;60111;48.286;7.812;2023-04-24T12:49:41;4.85;;;1.15;;
72205;SDS011;60111;48.286;7.812;2023-04-24T12:52:13;3.42;;;1.52;;
72205;SDS011;60111;48.286;7.812;2023-04-24T12:54:47;2.20;;;1.30;;
72205;SDS011;60111;48.286;7.812;2023-04-24T12:57:20;1.40;;;1.20;;
72205;SDS011;60111;48.286;7.812;2023-04-24T12:59:54;2.77;;;1.70;;
72205;SDS011;60111;48.286;7.812;2023-04-24T13:02:27;5.23;;;1.73;;
72205;SDS011;60111;48.286;7.812;2023-04-24T13:05:01;1.40;;;1.30;;
72205;SDS011;60111;48.286;7.812;2023-04-24T13:07:34;2.13;;;1.47;;
72205;SDS011;60111;48.286;7.812;2023-04-24T13:10:07;1.42;;;1.30;;
72205;SDS011;60111;48.286;7.812;2023-04-24T13:12:40;2.53;;;1.43;;
72205;SDS011;60111;48.286;7.812;2023-04-24T13:15:15;1.62;;;1.45;;
72205;SDS011;60111;48.286;7.812;2023-04-24T13:17:49;4.37;;;1.47;;
72205;SDS011;60111;48.286;7.812;2023-04-24T13:22:54;2.22;;;1.52;;
72205;SDS011;60111;48.286;7.812;2023-04-24T13:25:26;1.42;;;1.27;;
72205;SDS011;60111;48.286;7.812;2023-04-24T13:30:32;2.27;;;1.50;;
72205;SDS011;60111;48.286;7.812;2023-04-24T13:33:05;1.40;;;1.30;;
72205;SDS011;60111;48.286;7.812;2023-04-24T13:35:37;2.62;;;1.77;;
72205;SDS011;60111;48.286;7.812;2023-04-24T13:38:10;2.80;;;2.30;;
72205;SDS011;60111;48.286;7.812;2023-04-24T13:40:43;6.70;;;2.10;;
72205;SDS011;60111;48.286;7.812;2023-04-24T13:43:15;3.98;;;2.35;;
72205;SDS011;60111;48.286;7.812;2023-04-24T13:45:48;1.37;;;1.23;;
72205;SDS011;60111;48.286;7.812;2023-04-24T13:48:21;1.47;;;1.20;;
72205;SDS011;60111;48.286;7.812;2023-04-24T13:50:53;3.42;;;1.27;;
72205;SDS011;60111;48.286;7.812;2023-04-24T13:53:26;2.75;;;1.52;;
72205;SDS011;60111;48.286;7.812;2023-04-24T13:55:59;1.42;;;1.15;;
72205;SDS011;60111;48.286;7.812;2023-04-24T13:58:31;1.43;;;1.30;;
72205;SDS011;60111;48.286;7.812;2023-04-24T14:01:04;1.40;;;1.30;;
72205;SDS011;60111;48.286;7.812;2023-04-24T14:03:37;1.40;;;1.30;;
72205;SDS011;60111;48.286;7.812;2023-04-24T14:06:09;2.10;;;1.20;;
72205;SDS011;60111;48.286;7.812;2023-04-24T14:08:42;1.27;;;1.12;;
72205;SDS011;60111;48.286;7.812;2023-04-24T14:11:14;2.05;;;1.20;;
72205;SDS011;60111;48.286;7.812;2023-04-24T14:13:47;2.87;;;1.30;;
72205;SDS011;60111;48.286;7.812;2023-04-24T14:16:20;1.65;;;1.30;;
72205;SDS011;60111;48.286;7.812;2023-04-24T14:18:53;2.77;;;1.30;;
72205;SDS011;60111;48.286;7.812;2023-04-24T14:21:26;1.75;;;1.40;;
72205;SDS011;60111;48.286;7.812;2023-04-24T14:23:59;1.72;;;1.20;;
72205;SDS011;60111;48.286;7.812;2023-04-24T14:26:31;1.55;;;1.20;;
72205;SDS011;60111;48.286;7.812;2023-04-24T14:29:04;2.15;;;1.32;;
72205;SDS011;60111;48.286;7.812;2023-04-24T14:31:38;1.80;;;1.37;;
72205;SDS011;60111;48.286;7.812;2023-04-24T14:34:11;2.42;;;1.35;;
72205;SDS011;60111;48.286;7.812;2023-04-24T14:36:45;1.73;;;1.40;;
72205;SDS011;60111;48.286;7.812;2023-04-24T14:39:19;3.27;;;1.20;;
72205;SDS011;60111;48.286;7.812;2023-04-24T14:41:52;1.50;;;1.40;;
72205;SDS011;60111;48.286;7.812;2023-04-24T14:44:24;1.25;;;1.15;;
72205;SDS011;60111;48.286;7.812;2023-04-24T14:46:57;2.10;;;1.10;;
72205;SDS011;60111;48.286;7.812;2023-04-24T14:49:30;2.08;;;1.27;;
72205;SDS011;60111;48.286;7.812;2023-04-24T14:52:03;1.90;;;1.30;;
72205;SDS011;60111;48.286;7.812;2023-04-24T14:54:36;1.30;;;1.20;;
72205;SDS011;60111;48.286;7.812;2023-04-24T14:57:08;2.53;;;1.33;;
72205;SDS011;60111;48.286;7.812;2023-04-24T14:59:41;1.73;;;1.30;;
72205;SDS011;60111;48.286;7.812;2023-04-24T15:02:14;2.00;;;1.50;;
72205;SDS011;60111;48.286;7.812;2023-04-24T15:04:46;2.47;;;1.40;;
72205;SDS011;60111;48.286;7.812;2023-04-24T15:07:19;2.20;;;1.22;;
72205;SDS011;60111;48.286;7.812;2023-04-24T15:09:51;1.72;;;1.42;;
72205;SDS011;60111;48.286;7.812;2023-04-24T15:12:24;3.85;;;1.92;;
72205;SDS011;60111;48.286;7.812;2023-04-24T15:14:57;2.37;;;1.50;;
72205;SDS011;60111;48.286;7.812;2023-04-24T15:17:30;1.72;;;1.50;;
72205;SDS011;60111;48.286;7.812;2023-04-24T15:20:02;2.73;;;1.73;;
72205;SDS011;60111;48.286;7.812;2023-04-24T15:25:09;4.25;;;2.75;;
72205;SDS011;60111;48.286;7.812;2023-04-24T15:27:42;3.98;;;2.50;;
72205;SDS011;60111;48.286;7.812;2023-04-24T15:30:16;4.03;;;3.12;;
72205;SDS011;60111;48.286;7.812;2023-04-24T15:32:49;5.05;;;2.87;;
72205;SDS011;60111;48.286;7.812;2023-04-24T15:35:22;4.10;;;2.70;;
72205;SDS011;60111;48.286;7.812;2023-04-24T15:37:54;1.77;;;1.30;;
72205;SDS011;60111;48.286;7.812;2023-04-24T15:40:27;2.70;;;1.30;;
72205;SDS011;60111;48.286;7.812;2023-04-24T15:43:00;1.95;;;1.60;;
72205;SDS011;60111;48.286;7.812;2023-04-24T15:45:32;2.37;;;1.57;;
72205;SDS011;60111;48.286;7.812;2023-04-24T15:48:05;2.13;;;1.47;;
72205;SDS011;60111;48.286;7.812;2023-04-24T15:50:38;1.37;;;1.22;;
72205;SDS011;60111;48.286;7.812;2023-04-24T15:53:11;2.00;;;1.20;;
72205;SDS011;60111;48.286;7.812;2023-04-24T15:55:43;2.72;;;1.30;;
72205;SDS011;60111;48.286;7.812;2023-04-24T15:58:16;2.17;;;1.30;;
72205;SDS011;60111;48.286;7.812;2023-04-24T16:00:49;2.23;;;1.33;;